Francisco Romero

Scout - Millonarios
22 Apr 2027
Donnerstag
Verarbeitung

Persönlichkeit

Anpassungsfähigkeit (2) Ehrgeiz (3) Kontroverse (7) Loyalität (19) Druck (8) Professionalität (18) Fairness (19) Temperament (4)

Profil

Trainerstil Demokratisch
Lizenz Kontinentale B
Entschlossenheit 7
Menschenführung 7
Motivation 10
Disziplin 7
Arbeitszufriedenheit
50%
Ermüdung
0%
Rolle Scout
Gehalt 79.9K p/W
Vertrag 14.03.2028

Leistung

Verhalten Normal
Trainingseffektivität
24%
Spielerentwicklung
65%
Verletzungsprävention
65%
Taktische Umsetzung
35%

Letzte Ereignisse

Nahm an einer Scouting-Besprechung teil jetzt
Nahm an einer Scouting-Besprechung teil 7T her
Nahm an einer Scouting-Besprechung teil 7T her
Nahm an einer Scouting-Besprechung teil 7T her
Spieler begutachtet 7T her
Spieler begutachtet 7T her
Nahm an einer Scouting-Besprechung teil 14T her
Spieler begutachtet 14T her

Aktuell beobachtet

104
Spieler Verein Status Fähigkeit Vertrauen Beobachtet Zuletzt beobachtet Letzte Stimme
Franco Romero Toluca Aktiv 135 / 117 40% 3 16.04.2027 -
Tomás Ribeiro Cultural Leonesa Aktiv 114 / 126 40% 2 16.04.2027 -
Quinten Timber Crystal Palace Aktiv 146 / 136 40% 1 16.04.2027 -
Alessandro Buongiorno Sassuolo Aktiv 145 / 172 40% 1 14.04.2027 -
Nathan Collins Brentford Aktiv 144 / 152 40% 1 14.04.2027 -
Alfie Doughty Millwall Aktiv 132 / 134 40% 1 11.04.2027 -
Tristan Crama Millwall Aktiv 130 / 130 40% 1 11.04.2027 -
Darlin Yongwa Norwich City Aktiv 121 / 112 40% 1 11.04.2027 -
Ramón Terrats Getafe Aktiv 146 / 124 40% 1 05.04.2027 -
Adam Wharton Crystal Palace Aktiv 151 / 160 40% 1 05.04.2027 -
Rubén Duarte Legia Aktiv 140 / 145 40% 1 30.11.2026 -
Ross McCrorie Bristol City Aktiv 122 / 114 40% 1 30.11.2026 -
Santiago González Tigre Aktiv 126 / 119 40% 3 28.11.2026 -
Rodrigo Herrera Newell's Old Boys Aktiv 116 / 127 40% 1 28.11.2026 -
Marcos López San Martín Aktiv 128 / 123 40% 1 28.11.2026 -
Brodie Spencer Oxford United Aktiv 120 / 115 40% 1 27.11.2026 -
Stefano Moreyra Independiente Rivadavia Aktiv 115 / 125 40% 1 27.11.2026 -
Ignacio Rodríguez Racing Club Aktiv 129 / 126 40% 1 27.11.2026 -
Lukáš Červ Viktoria Plzen Aktiv 128 / 118 40% 1 27.11.2026 -
Israel Reyes CSKA Moscow Aktiv 130 / 121 40% 1 27.11.2026 -
Facundo Zabala Independiente Aktiv 119 / 128 40% 1 27.11.2026 -
Emanuel Coronel Rosario Central Aktiv 125 / 129 40% 3 26.11.2026 -
Iván Villalba Independiente Rivadavia Aktiv 124 / 112 40% 1 26.11.2026 -
Stephen Eustáquio Swansea City Aktiv 130 / 123 40% 1 26.11.2026 -
César Ibáñez Huracán Aktiv 124 / 118 40% 4 24.11.2026 -
Joaquín García Vélez Aktiv 120 / 134 40% 3 24.11.2026 -
Martín Garay Tigre Aktiv 115 / 125 40% 1 24.11.2026 -
Martín Ortega Newell's Old Boys Aktiv 120 / 113 40% 2 23.11.2026 -
Joaquim Tigres Aktiv 134 / 121 40% 3 22.11.2026 -
Lucas Arce CFR Cluj Aktiv 126 / 115 40% 1 22.11.2026 -
Adrián Sánchez Belgrano Aktiv 121 / 122 40% 2 21.11.2026 -
Francisco Álvarez Argentinos Juniors Aktiv 120 / 129 40% 2 21.11.2026 -
Pedro Vite Pumas UNAM Aktiv 119 / 114 40% 3 21.11.2026 -
Alan Cervantes Club America Aktiv 126 / 130 40% 1 21.11.2026 -
Lucas Souto Defensa y Justicia Aktiv 126 / 120 40% 3 19.11.2026 -
Jackson Porozo Tijuana Aktiv 111 / 107 40% 2 19.11.2026 -
Pablo Monroy Pumas UNAM Aktiv 125 / 117 40% 2 19.11.2026 -
Alejandro Gómez Tijuana Aktiv 118 / 127 40% 1 19.11.2026 -
Cristian Calderón Pumas UNAM Aktiv 132 / 126 40% 1 19.11.2026 -
Willer Ditta Cruz Azul Aktiv 143 / 145 40% 1 19.11.2026 -
Erik Lira Cruz Azul Aktiv 129 / 138 40% 2 16.11.2026 -
Mandla Erasmus SuperSport United Aktiv 131 / 117 40% 1 16.11.2026 -
Ramón Juárez Club America Aktiv 133 / 131 40% 2 15.11.2026 -
Emanuel Mammana Vélez Aktiv 137 / 123 40% 1 15.11.2026 -
Erick Reyes Toluca Aktiv 135 / 131 40% 7 14.11.2026 Beobachten
Ignacio Suárez Hapoel Kfar Saba Aktiv 108 / 107 40% 3 14.11.2026 -
Bruno Méndez Toluca Aktiv 122 / 124 40% 1 13.11.2026 -
Nazareno Colombo Racing Club Aktiv 122 / 121 40% 2 12.11.2026 -
Jesús Angulo Tigres Aktiv 131 / 137 40% 1 12.11.2026 -
Gerardo Arteaga Monterrey Aktiv 122 / 131 40% 1 12.11.2026 -
Eliás Montiel Pachuca Aktiv 131 / 142 40% 2 10.11.2026 -
Omar Campos Cruz Azul Aktiv 117 / 124 40% 1 10.11.2026 -
Santino Barbi Talleres Aktiv 118 / 127 40% 2 08.11.2026 Mehr Infos nötig
Facundo Vila Estudiantes Aktiv 107 / 106 40% 2 08.11.2026 -
Pablo Bennevendo Pumas UNAM Aktiv 115 / 121 40% 1 08.11.2026 -
Aarón Mejía Tijuana Aktiv 114 / 119 40% 1 08.11.2026 -
Lorenzo Palmisani Frosinone Aktiv 112 / 129 40% 1 08.11.2026 -
Richard Ledezma Guadalajara Aktiv 140 / 124 40% 2 05.11.2026 -
Gabriel Neves Estudiantes Aktiv 134 / 124 40% 1 05.11.2026 -
Leandro Lozano Boca Juniors Aktiv 131 / 116 40% 1 05.11.2026 -
Jhohan Romaña Leon Aktiv 127 / 138 40% 1 04.11.2026 -
Josh Keeley Luton Town Aktiv 124 / 137 40% 1 03.11.2026 -
Strahinja Manojlović Radnicki Nis Aktiv 113 / 119 40% 1 03.11.2026 -
Killian Cahill Leyton Orient Aktiv 107 / 88 40% 4 02.11.2026 -
Santiago Núñez Estudiantes Aktiv 122 / 123 40% 2 02.11.2026 -
Manuel Capasso Atlas Aktiv 130 / 115 40% 1 02.11.2026 -
Radek Vítek Middlesbrough Aktiv 143 / 134 40% 1 31.10.2026 -
Sebastián Jaume Albion Aktiv 91 / 107 40% 2 27.10.2026 -
Ángel González Libertad Aktiv 102 / 97 40% 2 26.10.2026 -
Kostantis Tzolakis Hull City Aktiv 151 / 129 40% 1 26.10.2026 -
Robin Roefs Sunderland Aktiv 153 / 125 40% 1 26.10.2026 -
Lautaro Bursich Talleres Aktiv 95 / 91 40% 2 25.10.2026 -
Jesús Orozco Chiquete Cruz Azul Aktiv 132 / 139 40% 2 25.10.2026 -
Franco Ibarra Rosario Central Aktiv 128 / 126 40% 1 25.10.2026 -
Laureano Martínez Talleres Aktiv 101 / 100 40% 1 24.10.2026 -
Siro Rosané Estudiantes Aktiv 121 / 108 40% 1 22.10.2026 -
José Florentín Independiente Rivadavia Aktiv 129 / 115 40% 1 22.10.2026 -
Nahuel Galardi Maipú Aktiv 112 / 119 40% 1 20.10.2026 -
Ángel Maciel Tacuarembo Aktiv 103 / 102 40% 1 20.10.2026 -
Jherson Mosquera Newell's Old Boys Aktiv 130 / 115 40% 1 19.10.2026 -
Adalberto Carrasquilla Pumas UNAM Aktiv 128 / 137 40% 1 17.10.2026 -
Nicolás Paz San Martín SJ Aktiv 126 / 122 40% 1 17.10.2026 -
Santiago Simón Toluca Aktiv 116 / 112 40% 1 09.10.2026 -
Daniel Herrera San Lorenzo Aktiv 125 / 116 40% 1 09.10.2026 -
Augusto Schott Talleres Aktiv 117 / 132 40% 1 09.10.2026 -
James Cardona La Equidad Aktiv 144 / 151 40% 1 08.10.2026 -
Vicente Poggi Godoy Cruz Aktiv 125 / 132 40% 1 08.10.2026 -
Bruno Antúnez Boston River Aktiv 108 / 121 40% 1 06.10.2026 -
Juan Carlos Portillo River Plate Aktiv 126 / 128 40% 1 05.10.2026 -
Felipe Peña Biafore Lanús Aktiv 121 / 127 40% 1 05.10.2026 -
John Amah Plateau United Aktiv 87 / 104 40% 1 26.09.2026 -
Mateo Clemente San Lorenzo Aktiv 114 / 118 40% 1 20.09.2026 -
Vincent Edafe Warri Wolves Aktiv 88 / 107 40% 1 10.09.2026 -
Ángel Espínola Sportivo Luqueno Aktiv 95 / 112 40% 3 09.09.2026 -
Facundo Miño Deportivo Riestra Aktiv 120 / 131 40% 1 09.09.2026 -
Víctor Guzmán Monterrey Aktiv 138 / 137 40% 1 09.09.2026 -
Isaac Boehmer Vancouver Whitecaps Aktiv 97 / 109 40% 1 02.09.2026 -
Svetoslav Vutsov Levski Aktiv 133 / 111 40% 1 24.08.2026 -
Frankarlos Benítez Caracas Aktiv 89 / 94 40% 2 15.08.2026 -
Franco Herrera Viitorul Aktiv 97 / 114 40% 2 15.08.2026 -
Julian Zapata Cortulua Aktiv 115 / 114 40% 1 04.08.2026 -
Iván Alejo Valladolid Aktiv 119 / 110 40% 1 02.08.2026 -
Leonardo Borja La Equidad Aktiv 137 / 135 40% 1 02.08.2026 -
Joaquín Canadell Quilmes Aktiv 101 / 102 40% 1 02.08.2026 -